createdAt,value
2022-10-25T00:01:21.846Z,12.90
2022-10-25T00:03:50.336Z,12.80
2022-10-25T00:06:20.125Z,12.80
2022-10-25T00:08:48.443Z,12.70
2022-10-25T00:11:21.780Z,12.60
2022-10-25T00:13:51.262Z,12.60
2022-10-25T00:16:22.836Z,12.50
2022-10-25T00:18:51.576Z,12.50
2022-10-25T00:21:21.655Z,12.60
2022-10-25T00:23:51.380Z,12.60
2022-10-25T00:26:20.362Z,12.60
2022-10-25T00:28:48.850Z,12.60
2022-10-25T00:31:18.723Z,12.50
2022-10-25T00:33:46.997Z,12.50
2022-10-25T00:36:18.142Z,12.50
2022-10-25T00:38:48.135Z,12.40
2022-10-25T00:41:19.098Z,12.40
2022-10-25T00:43:50.139Z,12.30
2022-10-25T00:46:25.369Z,12.30
2022-10-25T00:48:59.095Z,12.20
2022-10-25T00:51:34.315Z,12.20
2022-10-25T00:54:04.382Z,12.10
2022-10-25T00:56:39.022Z,12.10
2022-10-25T00:59:11.850Z,12.10
2022-10-25T01:01:42.340Z,12.00
2022-10-25T01:04:16.327Z,12.00
2022-10-25T01:06:50.697Z,12.00
2022-10-25T01:09:24.620Z,11.90
2022-10-25T01:11:52.947Z,11.80
2022-10-25T01:14:22.656Z,11.80
2022-10-25T01:17:02.010Z,11.70
2022-10-25T01:19:53.721Z,11.70
2022-10-25T01:22:30.572Z,11.70
2022-10-25T01:25:42.604Z,11.60
2022-10-25T01:28:17.372Z,11.50
2022-10-25T01:31:17.538Z,11.40
2022-10-25T01:33:56.431Z,11.40
2022-10-25T01:36:41.753Z,11.30
2022-10-25T01:39:16.003Z,11.20
2022-10-25T01:42:01.574Z,11.20
2022-10-25T01:44:40.518Z,11.10
2022-10-25T01:47:15.931Z,11.10
2022-10-25T01:49:51.337Z,11.00
2022-10-25T01:52:23.131Z,11.00
2022-10-25T01:54:51.505Z,10.90
2022-10-25T01:57:40.025Z,10.90
2022-10-25T02:00:14.824Z,10.90
2022-10-25T02:03:11.711Z,10.80
2022-10-25T02:05:57.137Z,10.70
2022-10-25T02:08:36.712Z,10.70
2022-10-25T02:11:17.030Z,10.70
2022-10-25T02:14:00.408Z,10.60
2022-10-25T02:16:37.212Z,10.60
2022-10-25T02:19:12.540Z,10.60
2022-10-25T02:21:43.175Z,10.60
2022-10-25T02:24:22.513Z,10.50
2022-10-25T02:26:52.606Z,10.50
2022-10-25T02:29:23.470Z,10.50
2022-10-25T02:31:52.400Z,10.40
2022-10-25T02:34:22.443Z,10.40
2022-10-25T02:36:53.077Z,10.40
2022-10-25T02:39:27.671Z,10.40
2022-10-25T02:41:58.772Z,10.40
2022-10-25T02:44:26.924Z,10.30
2022-10-25T02:46:55.083Z,10.30
2022-10-25T02:49:24.730Z,10.30
2022-10-25T02:51:53.130Z,10.20
2022-10-25T02:54:21.590Z,10.20
2022-10-25T02:56:52.284Z,10.20
2022-10-25T02:59:21.190Z,10.20
2022-10-25T03:01:49.525Z,10.20
2022-10-25T03:04:17.831Z,10.20
2022-10-25T03:06:47.381Z,10.20
2022-10-25T03:09:15.523Z,10.30
2022-10-25T03:11:43.736Z,10.40
2022-10-25T03:14:11.856Z,10.40
2022-10-25T03:16:40.016Z,10.50
2022-10-25T03:19:08.137Z,10.50
2022-10-25T03:21:38.711Z,10.60
2022-10-25T03:24:10.817Z,10.60
2022-10-25T03:26:38.943Z,10.60
2022-10-25T03:29:07.038Z,10.60
2022-10-25T03:31:35.184Z,10.50
2022-10-25T03:34:03.375Z,10.50
2022-10-25T03:36:31.549Z,10.60
2022-10-25T03:38:59.665Z,10.60
2022-10-25T03:41:29.113Z,10.60
2022-10-25T03:43:57.250Z,10.50
2022-10-25T03:46:25.329Z,10.50
2022-10-25T03:48:53.411Z,10.50
2022-10-25T03:51:21.553Z,10.50
2022-10-25T03:53:50.577Z,10.50
2022-10-25T03:56:18.728Z,10.50
2022-10-25T03:58:48.236Z,10.40
2022-10-25T04:01:16.477Z,10.40
2022-10-25T04:03:45.247Z,10.40
2022-10-25T04:06:13.564Z,10.30
2022-10-25T04:08:41.681Z,10.30
2022-10-25T04:11:09.808Z,10.30
2022-10-25T04:13:37.910Z,10.20
2022-10-25T04:16:09.790Z,10.20
2022-10-25T04:18:38.151Z,10.10
2022-10-25T04:21:06.725Z,10.10
2022-10-25T04:23:34.895Z,10.10
2022-10-25T04:26:03.082Z,10.10
2022-10-25T04:28:31.149Z,10.00
2022-10-25T04:30:59.235Z,10.00
2022-10-25T04:33:28.644Z,10.00
2022-10-25T04:35:58.165Z,10.10
2022-10-25T04:38:26.493Z,10.10
2022-10-25T04:40:56.287Z,10.10
2022-10-25T04:43:25.918Z,10.10
2022-10-25T04:45:54.465Z,10.10
2022-10-25T04:48:23.167Z,10.10
2022-10-25T04:50:52.620Z,10.20
2022-10-25T04:53:21.057Z,10.20
2022-10-25T04:55:57.424Z,10.20
2022-10-25T04:58:30.349Z,10.30
2022-10-25T05:01:02.444Z,10.40
2022-10-25T05:03:31.269Z,10.40
2022-10-25T05:06:08.885Z,10.50
2022-10-25T05:08:37.155Z,10.50
2022-10-25T05:11:05.625Z,10.60
2022-10-25T05:13:35.396Z,10.60
2022-10-25T05:16:04.659Z,10.60
2022-10-25T05:18:34.333Z,10.60
2022-10-25T05:21:05.772Z,10.60
2022-10-25T05:23:35.746Z,10.60
2022-10-25T05:26:06.580Z,10.60
2022-10-25T05:28:36.426Z,10.60
2022-10-25T05:31:05.979Z,10.60
2022-10-25T05:33:34.669Z,10.60
2022-10-25T05:36:04.748Z,10.60
2022-10-25T05:38:37.707Z,10.70
2022-10-25T05:41:07.722Z,10.70
2022-10-25T05:43:35.934Z,10.80
2022-10-25T05:46:07.225Z,10.90
2022-10-25T05:48:37.392Z,10.90
2022-10-25T05:51:32.626Z,11.00
2022-10-25T05:54:06.362Z,11.10
2022-10-25T05:56:36.374Z,11.20
2022-10-25T05:59:08.779Z,11.20
2022-10-25T06:01:39.410Z,11.30
2022-10-25T06:04:08.462Z,11.40
2022-10-25T06:06:38.906Z,11.40
2022-10-25T06:09:09.071Z,11.50
2022-10-25T06:11:37.742Z,11.50
2022-10-25T06:14:06.886Z,11.60
2022-10-25T06:16:35.155Z,11.70
2022-10-25T06:19:03.254Z,11.70
2022-10-25T06:21:31.901Z,11.80
2022-10-25T06:24:01.011Z,11.80
2022-10-25T06:26:32.168Z,11.90
2022-10-25T06:29:02.651Z,11.90
2022-10-25T06:31:32.853Z,11.90
2022-10-25T06:34:01.701Z,11.90
2022-10-25T06:36:31.620Z,11.90
2022-10-25T06:39:05.622Z,11.90
2022-10-25T06:41:37.938Z,12.00
2022-10-25T06:44:07.614Z,12.00
2022-10-25T06:47:04.322Z,12.00
2022-10-25T06:49:26.998Z,12.10
2022-10-25T06:51:55.774Z,12.10
2022-10-25T06:54:25.421Z,12.10
2022-10-25T06:56:54.991Z,12.20
2022-10-25T06:59:23.587Z,12.30
2022-10-25T07:01:52.423Z,12.50
2022-10-25T07:04:20.632Z,12.60
2022-10-25T07:06:51.457Z,12.80
2022-10-25T07:09:22.474Z,12.90
2022-10-25T07:11:51.081Z,13.00
2022-10-25T07:14:20.552Z,13.10
2022-10-25T07:16:48.697Z,13.10
2022-10-25T07:19:16.763Z,13.20
2022-10-25T07:21:45.122Z,13.20
2022-10-25T07:24:13.430Z,13.10
2022-10-25T07:26:41.761Z,13.10
2022-10-25T07:29:10.764Z,13.10
2022-10-25T07:31:44.180Z,13.10
2022-10-25T07:34:15.354Z,13.10
2022-10-25T07:36:44.031Z,13.10
2022-10-25T07:39:12.294Z,13.10
2022-10-25T07:41:40.378Z,13.20
2022-10-25T07:44:12.964Z,13.20
2022-10-25T07:46:45.660Z,13.30
2022-10-25T07:49:14.027Z,13.40
2022-10-25T07:51:42.172Z,13.40
2022-10-25T07:54:10.334Z,13.50
2022-10-25T07:56:38.446Z,13.60
2022-10-25T07:59:06.533Z,13.70
2022-10-25T08:01:34.714Z,13.80
2022-10-25T08:04:04.263Z,13.90
2022-10-25T08:06:36.084Z,14.00
2022-10-25T08:09:14.335Z,14.10
2022-10-25T08:11:48.673Z,14.20
2022-10-25T08:14:17.183Z,14.40
2022-10-25T08:16:45.440Z,14.50
2022-10-25T08:19:14.854Z,14.50
2022-10-25T08:21:43.003Z,14.60
2022-10-25T08:24:11.679Z,14.70
2022-10-25T08:26:39.826Z,14.80
2022-10-25T08:29:07.968Z,14.90
2022-10-25T08:31:36.201Z,15.00
2022-10-25T08:34:04.389Z,15.00
2022-10-25T08:36:33.852Z,15.10
2022-10-25T08:39:01.947Z,15.20
2022-10-25T08:41:44.067Z,15.30
2022-10-25T08:44:28.798Z,15.40
2022-10-25T08:47:02.367Z,15.50
2022-10-25T08:49:44.532Z,15.50
2022-10-25T08:52:21.680Z,15.60
2022-10-25T08:54:51.011Z,15.70
2022-10-25T08:57:25.147Z,15.90
2022-10-25T08:59:57.276Z,16.10
2022-10-25T09:02:42.838Z,16.20
2022-10-25T09:05:20.398Z,16.30
2022-10-25T09:08:16.297Z,16.30
2022-10-25T09:10:54.478Z,16.40
2022-10-25T09:13:40.913Z,16.50
2022-10-25T09:16:17.398Z,16.50
2022-10-25T09:18:51.173Z,16.50
2022-10-25T09:21:25.892Z,16.60
2022-10-25T09:24:03.671Z,16.60
2022-10-25T09:27:00.464Z,16.60
2022-10-25T09:29:37.846Z,16.70
2022-10-25T09:32:17.103Z,16.80
2022-10-25T09:34:46.108Z,17.00
2022-10-25T09:37:24.905Z,17.00
2022-10-25T09:40:01.002Z,17.10
2022-10-25T09:42:37.276Z,17.10
2022-10-25T09:45:16.161Z,17.10
2022-10-25T09:47:51.634Z,17.20
2022-10-25T09:50:27.995Z,17.30
2022-10-25T09:53:10.352Z,17.40
2022-10-25T09:55:50.105Z,17.50
2022-10-25T09:58:22.845Z,17.60
2022-10-25T10:00:52.813Z,17.70
2022-10-25T10:03:22.108Z,17.80
2022-10-25T10:05:55.125Z,17.90
2022-10-25T10:08:24.353Z,17.90
2022-10-25T10:10:56.092Z,17.80
2022-10-25T10:13:35.051Z,17.80
2022-10-25T10:16:12.990Z,17.70
2022-10-25T10:18:41.887Z,17.80
2022-10-25T10:21:19.647Z,17.90
2022-10-25T10:23:55.461Z,18.00
2022-10-25T10:26:31.333Z,18.10
2022-10-25T10:29:16.661Z,18.20
2022-10-25T10:31:49.409Z,18.20
2022-10-25T10:34:27.039Z,18.30
2022-10-25T10:37:22.722Z,18.40
2022-10-25T10:39:53.948Z,18.40
2022-10-25T10:42:33.337Z,18.50
2022-10-25T10:45:15.493Z,18.60
2022-10-25T10:47:46.743Z,18.70
2022-10-25T10:50:28.657Z,18.70
2022-10-25T10:53:01.243Z,18.80
2022-10-25T10:55:33.062Z,18.80
2022-10-25T10:58:08.938Z,19.00
2022-10-25T11:00:37.327Z,19.20
2022-10-25T11:03:05.976Z,19.40
2022-10-25T11:05:38.409Z,19.60
2022-10-25T11:08:21.660Z,19.60
2022-10-25T11:10:49.785Z,19.60
2022-10-25T11:13:22.785Z,19.60
2022-10-25T11:16:28.059Z,19.60
2022-10-25T11:19:24.996Z,19.50
2022-10-25T11:22:17.872Z,19.50
2022-10-25T11:25:02.930Z,19.60
2022-10-25T11:27:48.579Z,19.50
2022-10-25T11:30:20.972Z,19.50
2022-10-25T11:33:21.518Z,19.50
2022-10-25T11:36:30.231Z,19.60
2022-10-25T11:39:17.441Z,19.80
2022-10-25T11:41:49.840Z,20.00
2022-10-25T11:44:46.604Z,20.30
2022-10-25T11:47:35.015Z,20.80
2022-10-25T11:50:23.613Z,21.30
2022-10-25T11:53:25.504Z,21.50
2022-10-25T11:56:01.972Z,21.40
2022-10-25T11:58:50.424Z,21.40
2022-10-25T12:01:42.325Z,21.20
2022-10-25T12:04:45.109Z,20.80
2022-10-25T12:07:19.962Z,20.50
2022-10-25T12:10:04.030Z,20.20
2022-10-25T12:12:46.441Z,20.00
2022-10-25T12:15:22.752Z,20.00
2022-10-25T12:17:52.710Z,20.40
2022-10-25T12:20:27.514Z,21.10
2022-10-25T12:22:59.586Z,22.10
2022-10-25T12:25:34.850Z,23.20
2022-10-25T12:28:15.460Z,24.20
2022-10-25T12:30:45.521Z,24.80
2022-10-25T12:33:25.840Z,25.30
2022-10-25T12:36:03.425Z,25.50
2022-10-25T12:38:37.105Z,25.80
2022-10-25T12:41:11.027Z,26.10
2022-10-25T12:43:50.039Z,26.50
2022-10-25T12:46:57.953Z,26.70
2022-10-25T12:50:02.564Z,26.70
2022-10-25T12:52:36.101Z,27.10
2022-10-25T12:55:34.606Z,27.50
2022-10-25T12:58:24.809Z,27.80
2022-10-25T13:01:14.638Z,28.30
2022-10-25T13:04:46.199Z,28.90
2022-10-25T13:07:16.670Z,29.00
2022-10-25T13:09:46.631Z,29.10
2022-10-25T13:12:23.726Z,29.10
2022-10-25T13:14:55.930Z,29.20
2022-10-25T13:17:59.716Z,28.40
2022-10-25T13:20:52.288Z,27.70
2022-10-25T13:23:59.845Z,27.40
2022-10-25T13:26:56.838Z,26.50
2022-10-25T13:30:01.615Z,25.30
2022-10-25T13:32:31.883Z,24.50
2022-10-25T13:35:00.177Z,23.70
2022-10-25T13:37:44.741Z,23.20
2022-10-25T13:40:26.580Z,22.80
2022-10-25T13:43:07.070Z,22.50
2022-10-25T13:45:40.940Z,22.10
2022-10-25T13:48:28.355Z,21.80
2022-10-25T13:50:58.968Z,21.60
2022-10-25T13:53:36.006Z,21.50
2022-10-25T13:56:08.833Z,21.50
2022-10-25T13:58:52.723Z,21.40
2022-10-25T14:02:02.621Z,21.20
2022-10-25T14:04:41.570Z,21.00
2022-10-25T14:07:47.632Z,20.80
2022-10-25T14:10:28.851Z,20.70
2022-10-25T14:13:09.733Z,20.70
2022-10-25T14:15:49.871Z,20.70
2022-10-25T14:18:23.703Z,20.80
2022-10-25T14:20:59.155Z,20.90
2022-10-25T14:23:33.340Z,21.00
2022-10-25T14:26:05.121Z,21.20
2022-10-25T14:28:35.734Z,21.20
2022-10-25T14:31:07.718Z,21.10
2022-10-25T14:33:41.816Z,20.90
2022-10-25T14:36:25.793Z,20.70
2022-10-25T14:38:57.068Z,20.50
2022-10-25T14:41:27.716Z,20.30
2022-10-25T14:43:56.811Z,20.20
2022-10-25T14:46:30.034Z,20.10
2022-10-25T14:49:00.510Z,20.10
2022-10-25T14:51:32.393Z,20.00
2022-10-25T14:54:05.193Z,20.00
2022-10-25T14:56:37.301Z,20.20
2022-10-25T14:59:14.861Z,20.50
2022-10-25T15:01:54.225Z,20.30
2022-10-25T15:04:30.412Z,20.10
2022-10-25T15:06:59.928Z,19.90
2022-10-25T15:09:43.870Z,19.80
2022-10-25T15:12:21.638Z,19.60
2022-10-25T15:14:49.853Z,19.50
2022-10-25T15:17:27.005Z,19.40
2022-10-25T15:20:07.989Z,19.30
2022-10-25T15:22:45.397Z,19.20
2022-10-25T15:25:30.002Z,19.10
2022-10-25T15:28:10.489Z,19.00
2022-10-25T15:30:42.502Z,18.90
2022-10-25T15:33:16.773Z,18.80
2022-10-25T15:35:50.785Z,18.70
2022-10-25T15:38:19.801Z,18.60
2022-10-25T15:40:49.746Z,18.50
2022-10-25T15:43:17.904Z,18.40
2022-10-25T15:45:46.566Z,18.30
2022-10-25T15:48:20.744Z,18.20
2022-10-25T15:50:53.622Z,18.10
2022-10-25T15:53:22.761Z,17.90
2022-10-25T15:55:52.024Z,17.80
2022-10-25T15:58:20.239Z,17.60
2022-10-25T16:00:51.892Z,17.40
2022-10-25T16:03:24.106Z,17.30
2022-10-25T16:05:53.557Z,17.10
2022-10-25T16:08:21.855Z,17.00
2022-10-25T16:10:50.173Z,16.80
2022-10-25T16:13:27.583Z,16.60
2022-10-25T16:15:56.063Z,16.50
2022-10-25T16:20:59.154Z,16.20
2022-10-25T16:23:28.221Z,16.00
2022-10-25T16:25:56.859Z,15.90
2022-10-25T16:30:54.049Z,15.60
2022-10-25T16:33:22.144Z,15.50
2022-10-25T16:35:51.753Z,15.40
2022-10-25T16:38:19.962Z,15.30
2022-10-25T16:40:48.459Z,15.20
2022-10-25T16:43:16.893Z,15.00
2022-10-25T16:45:45.169Z,14.90
2022-10-25T16:48:13.315Z,14.80
2022-10-25T16:50:41.638Z,14.70
2022-10-25T16:53:14.820Z,14.60
2022-10-25T16:55:43.051Z,14.50
2022-10-25T16:58:11.827Z,14.40
2022-10-25T17:00:40.021Z,14.30
2022-10-25T17:03:08.220Z,14.20
2022-10-25T17:05:38.887Z,14.10
2022-10-25T17:08:07.098Z,14.00
2022-10-25T17:10:42.383Z,13.90
2022-10-25T17:13:16.044Z,13.80
2022-10-25T17:15:44.294Z,13.70
2022-10-25T17:18:15.921Z,13.70
2022-10-25T17:20:44.255Z,13.60
2022-10-25T17:23:12.367Z,13.50
2022-10-25T17:25:41.884Z,13.40
2022-10-25T17:28:10.001Z,13.30
2022-10-25T17:30:41.898Z,13.30
2022-10-25T17:33:10.060Z,13.20
2022-10-25T17:35:42.310Z,13.10
2022-10-25T17:38:10.581Z,13.00
2022-10-25T17:40:39.097Z,13.00
2022-10-25T17:43:08.860Z,12.90
2022-10-25T17:45:37.157Z,12.80
2022-10-25T17:48:06.238Z,12.80
2022-10-25T17:50:36.039Z,12.70
2022-10-25T17:53:04.215Z,12.70
2022-10-25T17:55:33.443Z,12.60
2022-10-25T17:58:02.075Z,12.60
2022-10-25T18:00:31.849Z,12.50
2022-10-25T18:03:00.187Z,12.50
2022-10-25T18:05:28.432Z,12.40
2022-10-25T18:07:56.561Z,12.30
2022-10-25T18:10:24.704Z,12.30
2022-10-25T18:12:53.344Z,12.30
2022-10-25T18:15:23.035Z,12.20
2022-10-25T18:17:52.828Z,12.20
2022-10-25T18:20:25.161Z,12.10
2022-10-25T18:22:55.381Z,12.10
2022-10-25T18:25:25.127Z,12.00
2022-10-25T18:27:53.298Z,12.00
2022-10-25T18:30:21.462Z,12.00
2022-10-25T18:32:49.665Z,11.90
2022-10-25T18:35:19.227Z,11.80
2022-10-25T18:37:48.329Z,11.80
2022-10-25T18:40:16.705Z,11.80
2022-10-25T18:42:44.864Z,11.70
2022-10-25T18:45:13.175Z,11.70
2022-10-25T18:47:41.497Z,11.60
2022-10-25T18:50:10.580Z,11.60
2022-10-25T18:52:40.116Z,11.50
2022-10-25T18:55:08.642Z,11.50
2022-10-25T18:57:36.887Z,11.50
2022-10-25T19:00:05.644Z,11.40
2022-10-25T19:02:37.660Z,11.40
2022-10-25T19:07:35.713Z,11.30
2022-10-25T19:10:06.540Z,11.30
2022-10-25T19:12:34.768Z,11.20
2022-10-25T19:15:02.927Z,11.10
2022-10-25T19:17:31.090Z,11.10
2022-10-25T19:19:59.213Z,11.10
2022-10-25T19:22:27.413Z,11.00
2022-10-25T19:24:55.645Z,11.00
2022-10-25T19:27:25.186Z,11.00
2022-10-25T19:29:53.288Z,10.90
2022-10-25T19:32:21.468Z,10.90
2022-10-25T19:37:19.111Z,10.80
2022-10-25T19:39:47.757Z,10.80
2022-10-25T19:42:16.782Z,10.80
2022-10-25T19:44:46.348Z,10.80
2022-10-25T19:47:15.147Z,10.70
2022-10-25T19:49:43.865Z,10.70
2022-10-25T19:52:12.077Z,10.70
2022-10-25T19:54:40.264Z,10.70
2022-10-25T19:57:08.489Z,10.60
2022-10-25T19:59:36.628Z,10.60
2022-10-25T20:02:06.274Z,10.60
2022-10-25T20:04:34.479Z,10.50
2022-10-25T20:07:02.763Z,10.50
2022-10-25T20:09:30.877Z,10.50
2022-10-25T20:11:59.091Z,10.40
2022-10-25T20:14:27.478Z,10.40
2022-10-25T20:16:55.618Z,10.40
2022-10-25T20:19:25.071Z,10.40
2022-10-25T20:21:53.212Z,10.30
2022-10-25T20:24:21.397Z,10.30
2022-10-25T20:26:50.340Z,10.30
2022-10-25T20:29:22.717Z,10.30
2022-10-25T20:31:51.926Z,10.20
2022-10-25T20:34:20.969Z,10.30
2022-10-25T20:36:50.484Z,10.20
2022-10-25T20:39:18.831Z,10.20
2022-10-25T20:41:47.229Z,10.20
2022-10-25T20:44:15.617Z,10.10
2022-10-25T20:46:43.771Z,10.10
2022-10-25T20:49:12.046Z,10.10
2022-10-25T20:51:40.238Z,10.10
2022-10-25T20:54:10.177Z,10.00
2022-10-25T20:56:39.457Z,10.00
2022-10-25T20:59:08.714Z,10.00
2022-10-25T21:01:37.766Z,10.00
2022-10-25T21:04:06.414Z,10.00
2022-10-25T21:06:34.534Z,9.90
2022-10-25T21:09:02.893Z,9.90
2022-10-25T21:11:32.592Z,9.90
2022-10-25T21:14:00.722Z,9.90
2022-10-25T21:16:28.835Z,9.80
2022-10-25T21:18:56.981Z,9.80
2022-10-25T21:21:25.135Z,9.80
2022-10-25T21:23:56.791Z,9.70
2022-10-25T21:26:24.985Z,9.70
2022-10-25T21:28:54.367Z,9.70
2022-10-25T21:31:22.446Z,9.70
2022-10-25T21:33:53.185Z,9.60
2022-10-25T21:36:23.293Z,9.60
2022-10-25T21:38:51.516Z,9.60
2022-10-25T21:41:26.623Z,9.60
2022-10-25T21:43:57.775Z,9.60
2022-10-25T21:46:28.165Z,9.50
2022-10-25T21:48:56.708Z,9.50
2022-10-25T21:51:25.487Z,9.50
2022-10-25T21:53:54.524Z,9.50
2022-10-25T21:56:30.528Z,9.50
2022-10-25T21:59:01.487Z,9.50
2022-10-25T22:01:31.764Z,9.50
2022-10-25T22:04:00.196Z,9.50
2022-10-25T22:06:29.368Z,9.50
2022-10-25T22:08:58.371Z,9.50
2022-10-25T22:11:29.343Z,9.50
2022-10-25T22:14:01.072Z,9.50
2022-10-25T22:16:30.802Z,9.50
2022-10-25T22:19:02.797Z,9.50
2022-10-25T22:21:33.986Z,9.60
2022-10-25T22:24:02.400Z,9.50
2022-10-25T22:26:30.994Z,9.50
2022-10-25T22:29:01.457Z,9.60
2022-10-25T22:31:31.004Z,9.60
2022-10-25T22:34:01.763Z,9.60
2022-10-25T22:36:33.295Z,9.60
2022-10-25T22:39:02.250Z,9.60
2022-10-25T22:41:31.661Z,9.60
2022-10-25T22:44:01.839Z,9.60
2022-10-25T22:46:32.601Z,9.60
2022-10-25T22:49:06.112Z,9.60
2022-10-25T22:51:34.321Z,9.60
2022-10-25T22:54:02.399Z,9.60
2022-10-25T22:56:32.198Z,9.60
2022-10-25T22:59:04.637Z,9.60
2022-10-25T23:01:35.491Z,9.60
2022-10-25T23:04:07.059Z,9.60
2022-10-25T23:06:38.024Z,9.50
2022-10-25T23:09:09.707Z,9.50
2022-10-25T23:11:40.511Z,9.50
2022-10-25T23:14:14.801Z,9.50
2022-10-25T23:16:46.198Z,9.50
2022-10-25T23:19:14.286Z,9.40
2022-10-25T23:21:42.344Z,9.40
2022-10-25T23:24:11.495Z,9.40
2022-10-25T23:26:40.275Z,9.30
2022-10-25T23:29:12.770Z,9.30
2022-10-25T23:31:40.889Z,9.30
2022-10-25T23:34:09.206Z,9.20
2022-10-25T23:36:38.222Z,9.20
2022-10-25T23:39:08.764Z,9.20
2022-10-25T23:41:37.181Z,9.20
2022-10-25T23:44:05.711Z,9.10
2022-10-25T23:46:35.182Z,9.10
2022-10-25T23:49:03.474Z,9.10
2022-10-25T23:51:31.719Z,9.10
2022-10-25T23:53:59.929Z,9.10
2022-10-25T23:56:28.159Z,9.00
2022-10-25T23:58:56.335Z,9.00
